sensor_id;sensor_type;location;lat;lon;timestamp;P1;durP1;ratioP1;P2;durP2;ratioP2
7845;SDS011;3968;51.424;6.788;2023-05-29T00:00:53;5.50;;;2.90;;
7845;SDS011;3968;51.424;6.788;2023-05-29T00:03:19;4.88;;;2.67;;
7845;SDS011;3968;51.424;6.788;2023-05-29T00:05:45;5.68;;;3.03;;
7845;SDS011;3968;51.424;6.788;2023-05-29T00:08:11;6.60;;;2.65;;
7845;SDS011;3968;51.424;6.788;2023-05-29T00:10:37;5.90;;;2.83;;
7845;SDS011;3968;51.424;6.788;2023-05-29T00:13:03;6.78;;;3.38;;
7845;SDS011;3968;51.424;6.788;2023-05-29T00:15:29;3.70;;;2.92;;
7845;SDS011;3968;51.424;6.788;2023-05-29T00:17:55;3.83;;;3.25;;
7845;SDS011;3968;51.424;6.788;2023-05-29T00:20:21;4.38;;;2.90;;
7845;SDS011;3968;51.424;6.788;2023-05-29T00:22:47;4.22;;;3.45;;
7845;SDS011;3968;51.424;6.788;2023-05-29T00:25:14;3.17;;;2.70;;
7845;SDS011;3968;51.424;6.788;2023-05-29T00:27:41;5.30;;;3.20;;
7845;SDS011;3968;51.424;6.788;2023-05-29T00:30:08;6.07;;;3.38;;
7845;SDS011;3968;51.424;6.788;2023-05-29T00:32:34;6.22;;;3.42;;
7845;SDS011;3968;51.424;6.788;2023-05-29T00:35:00;6.43;;;3.13;;
7845;SDS011;3968;51.424;6.788;2023-05-29T00:37:26;4.85;;;2.92;;
7845;SDS011;3968;51.424;6.788;2023-05-29T00:39:53;5.00;;;3.03;;
7845;SDS011;3968;51.424;6.788;2023-05-29T00:42:19;4.50;;;3.17;;
7845;SDS011;3968;51.424;6.788;2023-05-29T00:44:45;4.35;;;2.95;;
7845;SDS011;3968;51.424;6.788;2023-05-29T00:47:11;6.88;;;3.20;;
7845;SDS011;3968;51.424;6.788;2023-05-29T00:49:37;5.10;;;2.92;;
7845;SDS011;3968;51.424;6.788;2023-05-29T00:52:03;5.95;;;3.35;;
7845;SDS011;3968;51.424;6.788;2023-05-29T00:54:31;5.85;;;3.33;;
7845;SDS011;3968;51.424;6.788;2023-05-29T00:56:58;6.28;;;3.13;;
7845;SDS011;3968;51.424;6.788;2023-05-29T00:59:26;7.88;;;3.47;;
7845;SDS011;3968;51.424;6.788;2023-05-29T01:01:52;7.13;;;3.22;;
7845;SDS011;3968;51.424;6.788;2023-05-29T01:04:19;4.65;;;3.45;;
7845;SDS011;3968;51.424;6.788;2023-05-29T01:06:46;8.20;;;3.80;;
7845;SDS011;3968;51.424;6.788;2023-05-29T01:09:12;7.60;;;3.35;;
7845;SDS011;3968;51.424;6.788;2023-05-29T01:11:42;4.55;;;3.30;;
7845;SDS011;3968;51.424;6.788;2023-05-29T01:14:14;7.43;;;3.50;;
7845;SDS011;3968;51.424;6.788;2023-05-29T01:22:13;6.43;;;3.55;;
7845;SDS011;3968;51.424;6.788;2023-05-29T01:24:49;6.75;;;3.65;;
7845;SDS011;3968;51.424;6.788;2023-05-29T01:27:17;7.43;;;3.70;;
7845;SDS011;3968;51.424;6.788;2023-05-29T01:29:44;7.10;;;3.60;;
7845;SDS011;3968;51.424;6.788;2023-05-29T01:32:11;8.38;;;3.72;;
7845;SDS011;3968;51.424;6.788;2023-05-29T01:34:37;9.13;;;3.37;;
7845;SDS011;3968;51.424;6.788;2023-05-29T01:37:03;8.07;;;3.67;;
7845;SDS011;3968;51.424;6.788;2023-05-29T01:39:30;9.55;;;3.67;;
7845;SDS011;3968;51.424;6.788;2023-05-29T01:41:56;10.77;;;4.17;;
7845;SDS011;3968;51.424;6.788;2023-05-29T01:44:23;9.93;;;3.55;;
7845;SDS011;3968;51.424;6.788;2023-05-29T01:46:50;10.07;;;3.47;;
7845;SDS011;3968;51.424;6.788;2023-05-29T01:49:16;10.05;;;2.97;;
7845;SDS011;3968;51.424;6.788;2023-05-29T01:51:42;6.30;;;3.07;;
7845;SDS011;3968;51.424;6.788;2023-05-29T01:54:09;15.73;;;4.23;;
7845;SDS011;3968;51.424;6.788;2023-05-29T01:56:35;10.10;;;3.23;;
7845;SDS011;3968;51.424;6.788;2023-05-29T01:59:02;9.17;;;3.40;;
7845;SDS011;3968;51.424;6.788;2023-05-29T02:01:29;8.50;;;3.27;;
7845;SDS011;3968;51.424;6.788;2023-05-29T02:03:55;8.63;;;2.97;;
7845;SDS011;3968;51.424;6.788;2023-05-29T02:06:21;8.90;;;3.17;;
7845;SDS011;3968;51.424;6.788;2023-05-29T02:08:47;8.90;;;3.20;;
7845;SDS011;3968;51.424;6.788;2023-05-29T02:11:13;8.93;;;2.87;;
7845;SDS011;3968;51.424;6.788;2023-05-29T02:13:39;6.75;;;3.00;;
7845;SDS011;3968;51.424;6.788;2023-05-29T02:16:05;13.57;;;3.43;;
7845;SDS011;3968;51.424;6.788;2023-05-29T02:18:31;12.93;;;3.70;;
7845;SDS011;3968;51.424;6.788;2023-05-29T02:20:59;9.47;;;2.90;;
7845;SDS011;3968;51.424;6.788;2023-05-29T02:23:25;10.07;;;3.17;;
7845;SDS011;3968;51.424;6.788;2023-05-29T02:25:52;8.40;;;2.80;;
7845;SDS011;3968;51.424;6.788;2023-05-29T02:28:18;9.83;;;3.03;;
7845;SDS011;3968;51.424;6.788;2023-05-29T02:30:44;7.90;;;3.10;;
7845;SDS011;3968;51.424;6.788;2023-05-29T02:33:10;9.87;;;3.17;;
7845;SDS011;3968;51.424;6.788;2023-05-29T02:35:36;10.70;;;3.37;;
7845;SDS011;3968;51.424;6.788;2023-05-29T02:38:02;6.67;;;3.20;;
7845;SDS011;3968;51.424;6.788;2023-05-29T02:40:28;11.67;;;3.73;;
7845;SDS011;3968;51.424;6.788;2023-05-29T02:42:54;8.93;;;3.28;;
7845;SDS011;3968;51.424;6.788;2023-05-29T02:45:20;11.93;;;3.07;;
7845;SDS011;3968;51.424;6.788;2023-05-29T02:47:46;13.37;;;3.37;;
7845;SDS011;3968;51.424;6.788;2023-05-29T02:50:12;7.13;;;3.00;;
7845;SDS011;3968;51.424;6.788;2023-05-29T02:52:39;10.50;;;3.50;;
7845;SDS011;3968;51.424;6.788;2023-05-29T02:55:06;12.20;;;3.47;;
7845;SDS011;3968;51.424;6.788;2023-05-29T02:57:32;11.90;;;3.50;;
7845;SDS011;3968;51.424;6.788;2023-05-29T02:59:58;9.97;;;3.20;;
7845;SDS011;3968;51.424;6.788;2023-05-29T03:02:25;12.83;;;3.80;;
7845;SDS011;3968;51.424;6.788;2023-05-29T03:04:51;15.13;;;3.60;;
7845;SDS011;3968;51.424;6.788;2023-05-29T03:07:18;11.37;;;3.47;;
7845;SDS011;3968;51.424;6.788;2023-05-29T03:09:44;7.23;;;2.97;;
7845;SDS011;3968;51.424;6.788;2023-05-29T03:12:10;11.60;;;3.07;;
7845;SDS011;3968;51.424;6.788;2023-05-29T03:14:36;8.83;;;3.03;;
7845;SDS011;3968;51.424;6.788;2023-05-29T03:17:05;14.93;;;3.67;;
7845;SDS011;3968;51.424;6.788;2023-05-29T03:19:32;12.63;;;3.83;;
7845;SDS011;3968;51.424;6.788;2023-05-29T03:21:58;13.20;;;3.43;;
7845;SDS011;3968;51.424;6.788;2023-05-29T03:24:24;7.73;;;2.80;;
7845;SDS011;3968;51.424;6.788;2023-05-29T03:26:50;9.77;;;3.33;;
7845;SDS011;3968;51.424;6.788;2023-05-29T03:29:16;13.47;;;3.67;;
7845;SDS011;3968;51.424;6.788;2023-05-29T03:31:42;14.27;;;3.20;;
7845;SDS011;3968;51.424;6.788;2023-05-29T03:34:08;7.90;;;3.03;;
7845;SDS011;3968;51.424;6.788;2023-05-29T03:36:34;12.47;;;3.57;;
7845;SDS011;3968;51.424;6.788;2023-05-29T03:39:03;9.53;;;3.17;;
7845;SDS011;3968;51.424;6.788;2023-05-29T03:41:29;12.07;;;3.23;;
7845;SDS011;3968;51.424;6.788;2023-05-29T03:43:55;10.00;;;3.00;;
7845;SDS011;3968;51.424;6.788;2023-05-29T03:46:22;11.13;;;3.20;;
7845;SDS011;3968;51.424;6.788;2023-05-29T03:48:48;7.83;;;2.73;;
7845;SDS011;3968;51.424;6.788;2023-05-29T03:51:14;10.90;;;3.73;;
7845;SDS011;3968;51.424;6.788;2023-05-29T03:53:40;14.23;;;3.70;;
7845;SDS011;3968;51.424;6.788;2023-05-29T03:56:06;16.97;;;3.53;;
7845;SDS011;3968;51.424;6.788;2023-05-29T03:58:32;13.47;;;3.80;;
7845;SDS011;3968;51.424;6.788;2023-05-29T04:00:58;10.93;;;3.60;;
7845;SDS011;3968;51.424;6.788;2023-05-29T04:03:24;11.30;;;3.23;;
7845;SDS011;3968;51.424;6.788;2023-05-29T04:05:50;14.40;;;3.50;;
7845;SDS011;3968;51.424;6.788;2023-05-29T04:08:16;12.63;;;3.60;;
7845;SDS011;3968;51.424;6.788;2023-05-29T04:10:42;12.67;;;3.50;;
7845;SDS011;3968;51.424;6.788;2023-05-29T04:13:09;12.00;;;3.60;;
7845;SDS011;3968;51.424;6.788;2023-05-29T04:15:35;13.37;;;3.23;;
7845;SDS011;3968;51.424;6.788;2023-05-29T04:18:01;13.53;;;3.97;;
7845;SDS011;3968;51.424;6.788;2023-05-29T04:20:27;10.90;;;3.10;;
7845;SDS011;3968;51.424;6.788;2023-05-29T04:22:53;10.70;;;3.77;;
7845;SDS011;3968;51.424;6.788;2023-05-29T04:25:19;11.07;;;3.30;;
7845;SDS011;3968;51.424;6.788;2023-05-29T04:27:45;15.87;;;3.73;;
7845;SDS011;3968;51.424;6.788;2023-05-29T04:30:13;8.10;;;3.00;;
7845;SDS011;3968;51.424;6.788;2023-05-29T04:32:40;11.63;;;3.47;;
7845;SDS011;3968;51.424;6.788;2023-05-29T04:35:06;14.47;;;3.53;;
7845;SDS011;3968;51.424;6.788;2023-05-29T04:37:32;16.77;;;3.63;;
7845;SDS011;3968;51.424;6.788;2023-05-29T04:40:05;12.23;;;3.30;;
7845;SDS011;3968;51.424;6.788;2023-05-29T04:42:37;14.33;;;3.80;;
7845;SDS011;3968;51.424;6.788;2023-05-29T04:45:04;12.63;;;3.27;;
7845;SDS011;3968;51.424;6.788;2023-05-29T04:47:31;10.57;;;3.77;;
7845;SDS011;3968;51.424;6.788;2023-05-29T04:49:58;15.60;;;3.93;;
7845;SDS011;3968;51.424;6.788;2023-05-29T04:52:25;13.68;;;3.60;;
7845;SDS011;3968;51.424;6.788;2023-05-29T04:54:51;17.90;;;3.50;;
7845;SDS011;3968;51.424;6.788;2023-05-29T04:57:17;15.43;;;3.20;;
7845;SDS011;3968;51.424;6.788;2023-05-29T04:59:43;13.10;;;3.00;;
7845;SDS011;3968;51.424;6.788;2023-05-29T05:02:09;11.60;;;3.60;;
7845;SDS011;3968;51.424;6.788;2023-05-29T05:04:35;12.10;;;2.90;;
7845;SDS011;3968;51.424;6.788;2023-05-29T05:07:01;12.77;;;3.67;;
7845;SDS011;3968;51.424;6.788;2023-05-29T05:09:28;15.50;;;4.13;;
7845;SDS011;3968;51.424;6.788;2023-05-29T05:11:54;14.80;;;3.67;;
7845;SDS011;3968;51.424;6.788;2023-05-29T05:14:20;13.40;;;3.77;;
7845;SDS011;3968;51.424;6.788;2023-05-29T05:16:47;14.43;;;3.77;;
7845;SDS011;3968;51.424;6.788;2023-05-29T05:19:13;12.77;;;3.43;;
7845;SDS011;3968;51.424;6.788;2023-05-29T05:21:39;16.37;;;3.10;;
7845;SDS011;3968;51.424;6.788;2023-05-29T05:24:05;12.57;;;2.93;;
7845;SDS011;3968;51.424;6.788;2023-05-29T05:26:31;13.23;;;3.40;;
7845;SDS011;3968;51.424;6.788;2023-05-29T05:28:57;11.40;;;3.40;;
7845;SDS011;3968;51.424;6.788;2023-05-29T05:31:23;11.07;;;3.23;;
7845;SDS011;3968;51.424;6.788;2023-05-29T05:33:50;12.20;;;3.60;;
7845;SDS011;3968;51.424;6.788;2023-05-29T05:36:16;18.43;;;3.80;;
7845;SDS011;3968;51.424;6.788;2023-05-29T05:38:42;14.10;;;4.03;;
7845;SDS011;3968;51.424;6.788;2023-05-29T05:41:08;12.27;;;3.37;;
7845;SDS011;3968;51.424;6.788;2023-05-29T05:43:35;13.50;;;3.70;;
7845;SDS011;3968;51.424;6.788;2023-05-29T05:46:01;16.87;;;3.53;;
7845;SDS011;3968;51.424;6.788;2023-05-29T05:48:27;11.23;;;3.50;;
7845;SDS011;3968;51.424;6.788;2023-05-29T05:50:53;10.73;;;3.30;;
7845;SDS011;3968;51.424;6.788;2023-05-29T05:53:19;13.47;;;3.07;;
7845;SDS011;3968;51.424;6.788;2023-05-29T05:55:46;14.70;;;3.63;;
7845;SDS011;3968;51.424;6.788;2023-05-29T05:58:12;9.67;;;3.33;;
7845;SDS011;3968;51.424;6.788;2023-05-29T06:00:39;11.57;;;3.20;;
7845;SDS011;3968;51.424;6.788;2023-05-29T06:03:05;13.40;;;3.53;;
7845;SDS011;3968;51.424;6.788;2023-05-29T06:05:31;13.73;;;3.97;;
7845;SDS011;3968;51.424;6.788;2023-05-29T06:07:59;10.13;;;3.40;;
7845;SDS011;3968;51.424;6.788;2023-05-29T06:10:25;12.73;;;3.63;;
7845;SDS011;3968;51.424;6.788;2023-05-29T06:12:51;10.47;;;3.13;;
7845;SDS011;3968;51.424;6.788;2023-05-29T06:15:17;14.67;;;3.30;;
7845;SDS011;3968;51.424;6.788;2023-05-29T06:17:43;10.83;;;3.70;;
7845;SDS011;3968;51.424;6.788;2023-05-29T06:20:09;12.00;;;3.30;;
7845;SDS011;3968;51.424;6.788;2023-05-29T06:22:39;8.07;;;2.80;;
7845;SDS011;3968;51.424;6.788;2023-05-29T06:25:05;13.10;;;3.50;;
7845;SDS011;3968;51.424;6.788;2023-05-29T06:27:31;10.87;;;3.60;;
7845;SDS011;3968;51.424;6.788;2023-05-29T06:29:57;12.20;;;3.57;;
7845;SDS011;3968;51.424;6.788;2023-05-29T06:32:23;13.73;;;3.40;;
7845;SDS011;3968;51.424;6.788;2023-05-29T06:34:49;8.97;;;3.27;;
7845;SDS011;3968;51.424;6.788;2023-05-29T06:37:15;10.23;;;3.17;;
7845;SDS011;3968;51.424;6.788;2023-05-29T06:39:44;11.90;;;2.97;;
7845;SDS011;3968;51.424;6.788;2023-05-29T06:42:10;14.13;;;3.70;;
7845;SDS011;3968;51.424;6.788;2023-05-29T06:44:36;14.27;;;2.87;;
7845;SDS011;3968;51.424;6.788;2023-05-29T06:47:02;13.43;;;3.50;;
7845;SDS011;3968;51.424;6.788;2023-05-29T06:49:28;13.40;;;3.60;;
7845;SDS011;3968;51.424;6.788;2023-05-29T06:51:54;10.07;;;3.27;;
7845;SDS011;3968;51.424;6.788;2023-05-29T06:54:20;12.83;;;3.93;;
7845;SDS011;3968;51.424;6.788;2023-05-29T06:56:46;9.47;;;3.10;;
7845;SDS011;3968;51.424;6.788;2023-05-29T06:59:12;14.80;;;3.50;;
7845;SDS011;3968;51.424;6.788;2023-05-29T07:01:38;13.07;;;3.20;;
7845;SDS011;3968;51.424;6.788;2023-05-29T07:04:04;9.32;;;3.15;;
7845;SDS011;3968;51.424;6.788;2023-05-29T07:06:30;10.03;;;2.70;;
7845;SDS011;3968;51.424;6.788;2023-05-29T07:08:56;12.47;;;3.43;;
7845;SDS011;3968;51.424;6.788;2023-05-29T07:11:22;11.73;;;3.20;;
7845;SDS011;3968;51.424;6.788;2023-05-29T07:13:48;11.13;;;3.73;;
7845;SDS011;3968;51.424;6.788;2023-05-29T07:16:14;10.43;;;2.90;;
7845;SDS011;3968;51.424;6.788;2023-05-29T07:18:41;8.80;;;2.95;;
7845;SDS011;3968;51.424;6.788;2023-05-29T07:21:07;11.53;;;3.50;;
7845;SDS011;3968;51.424;6.788;2023-05-29T07:23:33;15.67;;;3.27;;
7845;SDS011;3968;51.424;6.788;2023-05-29T07:25:59;13.23;;;3.37;;
7845;SDS011;3968;51.424;6.788;2023-05-29T07:28:25;11.13;;;3.27;;
7845;SDS011;3968;51.424;6.788;2023-05-29T07:30:51;14.00;;;3.63;;
7845;SDS011;3968;51.424;6.788;2023-05-29T07:33:17;10.37;;;2.93;;
7845;SDS011;3968;51.424;6.788;2023-05-29T07:35:43;8.43;;;3.50;;
7845;SDS011;3968;51.424;6.788;2023-05-29T07:38:09;12.90;;;3.93;;
7845;SDS011;3968;51.424;6.788;2023-05-29T07:40:35;9.40;;;3.93;;
7845;SDS011;3968;51.424;6.788;2023-05-29T07:43:01;11.77;;;3.40;;
7845;SDS011;3968;51.424;6.788;2023-05-29T07:45:28;12.27;;;3.13;;
7845;SDS011;3968;51.424;6.788;2023-05-29T07:47:54;69.32;;;42.70;;
7845;SDS011;3968;51.424;6.788;2023-05-29T07:50:20;71.73;;;41.43;;
7845;SDS011;3968;51.424;6.788;2023-05-29T07:52:46;98.53;;;64.28;;
7845;SDS011;3968;51.424;6.788;2023-05-29T07:55:12;94.65;;;58.40;;
7845;SDS011;3968;51.424;6.788;2023-05-29T07:57:38;28.42;;;15.05;;
7845;SDS011;3968;51.424;6.788;2023-05-29T08:00:04;22.00;;;9.75;;
7845;SDS011;3968;51.424;6.788;2023-05-29T08:02:31;26.67;;;10.60;;
7845;SDS011;3968;51.424;6.788;2023-05-29T08:04:57;14.52;;;6.30;;
7845;SDS011;3968;51.424;6.788;2023-05-29T08:07:23;19.75;;;9.55;;
7845;SDS011;3968;51.424;6.788;2023-05-29T08:09:49;15.63;;;6.15;;
7845;SDS011;3968;51.424;6.788;2023-05-29T08:12:15;12.45;;;4.85;;
7845;SDS011;3968;51.424;6.788;2023-05-29T08:14:41;10.48;;;4.38;;
7845;SDS011;3968;51.424;6.788;2023-05-29T08:17:07;12.88;;;4.38;;
7845;SDS011;3968;51.424;6.788;2023-05-29T08:19:33;9.02;;;3.53;;
7845;SDS011;3968;51.424;6.788;2023-05-29T08:22:00;12.52;;;3.42;;
7845;SDS011;3968;51.424;6.788;2023-05-29T08:24:26;8.70;;;3.60;;
7845;SDS011;3968;51.424;6.788;2023-05-29T08:26:52;10.80;;;3.55;;
7845;SDS011;3968;51.424;6.788;2023-05-29T08:29:18;11.15;;;3.13;;
7845;SDS011;3968;51.424;6.788;2023-05-29T08:31:44;15.27;;;3.92;;
7845;SDS011;3968;51.424;6.788;2023-05-29T08:34:11;11.32;;;3.45;;
7845;SDS011;3968;51.424;6.788;2023-05-29T08:36:37;8.23;;;3.03;;
7845;SDS011;3968;51.424;6.788;2023-05-29T08:39:06;10.98;;;3.72;;
7845;SDS011;3968;51.424;6.788;2023-05-29T08:43:58;14.15;;;3.97;;
7845;SDS011;3968;51.424;6.788;2023-05-29T08:46:25;9.82;;;3.40;;
7845;SDS011;3968;51.424;6.788;2023-05-29T08:48:52;11.75;;;3.85;;
7845;SDS011;3968;51.424;6.788;2023-05-29T08:51:20;9.02;;;3.47;;
7845;SDS011;3968;51.424;6.788;2023-05-29T08:53:47;17.00;;;4.28;;
7845;SDS011;3968;51.424;6.788;2023-05-29T08:56:13;12.88;;;3.63;;
7845;SDS011;3968;51.424;6.788;2023-05-29T08:58:39;12.35;;;4.10;;
7845;SDS011;3968;51.424;6.788;2023-05-29T09:01:05;13.27;;;4.25;;
7845;SDS011;3968;51.424;6.788;2023-05-29T09:03:31;13.77;;;4.03;;
7845;SDS011;3968;51.424;6.788;2023-05-29T09:05:58;9.95;;;3.50;;
7845;SDS011;3968;51.424;6.788;2023-05-29T09:08:25;13.63;;;5.70;;
7845;SDS011;3968;51.424;6.788;2023-05-29T09:10:53;16.35;;;4.68;;
7845;SDS011;3968;51.424;6.788;2023-05-29T09:13:20;9.95;;;3.53;;
7845;SDS011;3968;51.424;6.788;2023-05-29T09:15:46;12.48;;;4.38;;
7845;SDS011;3968;51.424;6.788;2023-05-29T09:18:12;12.23;;;3.10;;
7845;SDS011;3968;51.424;6.788;2023-05-29T09:20:38;10.50;;;3.60;;
7845;SDS011;3968;51.424;6.788;2023-05-29T09:23:05;8.50;;;3.50;;
7845;SDS011;3968;51.424;6.788;2023-05-29T09:25:32;8.63;;;3.00;;
7845;SDS011;3968;51.424;6.788;2023-05-29T09:27:59;11.45;;;3.50;;
7845;SDS011;3968;51.424;6.788;2023-05-29T09:30:30;10.80;;;3.05;;
7845;SDS011;3968;51.424;6.788;2023-05-29T09:32:58;14.60;;;4.03;;
7845;SDS011;3968;51.424;6.788;2023-05-29T09:35:25;8.57;;;3.45;;
7845;SDS011;3968;51.424;6.788;2023-05-29T09:37:52;12.95;;;4.07;;
7845;SDS011;3968;51.424;6.788;2023-05-29T09:40:18;12.48;;;3.90;;
7845;SDS011;3968;51.424;6.788;2023-05-29T09:42:44;10.93;;;3.88;;
7845;SDS011;3968;51.424;6.788;2023-05-29T09:45:10;11.73;;;4.30;;
7845;SDS011;3968;51.424;6.788;2023-05-29T09:47:37;12.68;;;3.53;;
7845;SDS011;3968;51.424;6.788;2023-05-29T09:50:04;9.57;;;3.35;;
7845;SDS011;3968;51.424;6.788;2023-05-29T09:52:32;15.63;;;3.88;;
7845;SDS011;3968;51.424;6.788;2023-05-29T09:55:01;10.15;;;4.03;;
7845;SDS011;3968;51.424;6.788;2023-05-29T09:57:27;10.90;;;4.30;;
7845;SDS011;3968;51.424;6.788;2023-05-29T09:59:54;11.15;;;3.45;;
7845;SDS011;3968;51.424;6.788;2023-05-29T10:02:20;17.60;;;3.83;;
7845;SDS011;3968;51.424;6.788;2023-05-29T10:04:47;22.42;;;10.77;;
7845;SDS011;3968;51.424;6.788;2023-05-29T10:07:22;29.15;;;13.32;;
7845;SDS011;3968;51.424;6.788;2023-05-29T10:09:52;18.75;;;11.07;;
7845;SDS011;3968;51.424;6.788;2023-05-29T10:12:19;14.85;;;4.28;;
7845;SDS011;3968;51.424;6.788;2023-05-29T10:14:46;14.18;;;4.70;;
7845;SDS011;3968;51.424;6.788;2023-05-29T10:17:15;16.10;;;3.50;;
7845;SDS011;3968;51.424;6.788;2023-05-29T10:19:44;12.20;;;3.80;;
7845;SDS011;3968;51.424;6.788;2023-05-29T10:22:12;11.77;;;3.40;;
7845;SDS011;3968;51.424;6.788;2023-05-29T10:24:41;12.00;;;3.85;;
7845;SDS011;3968;51.424;6.788;2023-05-29T10:27:08;13.30;;;4.13;;
7845;SDS011;3968;51.424;6.788;2023-05-29T10:29:35;10.98;;;3.85;;
7845;SDS011;3968;51.424;6.788;2023-05-29T10:39:51;11.27;;;3.90;;
7845;SDS011;3968;51.424;6.788;2023-05-29T10:45:02;10.23;;;4.68;;
7845;SDS011;3968;51.424;6.788;2023-05-29T10:47:31;13.63;;;5.72;;
7845;SDS011;3968;51.424;6.788;2023-05-29T10:50:01;8.63;;;3.65;;
7845;SDS011;3968;51.424;6.788;2023-05-29T10:52:30;10.85;;;4.07;;
7845;SDS011;3968;51.424;6.788;2023-05-29T10:54:56;12.90;;;4.10;;
7845;SDS011;3968;51.424;6.788;2023-05-29T10:57:23;12.88;;;3.92;;
7845;SDS011;3968;51.424;6.788;2023-05-29T10:59:57;9.75;;;3.25;;
7845;SDS011;3968;51.424;6.788;2023-05-29T11:02:24;10.32;;;3.60;;
7845;SDS011;3968;51.424;6.788;2023-05-29T11:07:35;10.45;;;3.60;;
7845;SDS011;3968;51.424;6.788;2023-05-29T11:10:11;9.63;;;3.65;;
7845;SDS011;3968;51.424;6.788;2023-05-29T11:12:55;12.70;;;3.35;;
7845;SDS011;3968;51.424;6.788;2023-05-29T11:15:21;11.00;;;3.13;;
7845;SDS011;3968;51.424;6.788;2023-05-29T11:17:48;12.27;;;3.63;;
7845;SDS011;3968;51.424;6.788;2023-05-29T11:23:01;9.63;;;3.00;;
7845;SDS011;3968;51.424;6.788;2023-05-29T11:25:28;9.68;;;3.47;;
7845;SDS011;3968;51.424;6.788;2023-05-29T11:27:54;9.88;;;3.05;;
7845;SDS011;3968;51.424;6.788;2023-05-29T11:30:21;9.77;;;3.72;;
7845;SDS011;3968;51.424;6.788;2023-05-29T11:32:47;5.63;;;3.03;;
7845;SDS011;3968;51.424;6.788;2023-05-29T11:35:15;42.42;;;28.08;;
7845;SDS011;3968;51.424;6.788;2023-05-29T11:37:42;37.72;;;26.45;;
7845;SDS011;3968;51.424;6.788;2023-05-29T11:40:12;43.40;;;27.35;;
7845;SDS011;3968;51.424;6.788;2023-05-29T11:42:41;30.55;;;18.60;;
7845;SDS011;3968;51.424;6.788;2023-05-29T11:45:10;25.92;;;14.52;;
7845;SDS011;3968;51.424;6.788;2023-05-29T11:50:24;18.55;;;9.10;;
7845;SDS011;3968;51.424;6.788;2023-05-29T11:52:50;12.55;;;3.80;;
7845;SDS011;3968;51.424;6.788;2023-05-29T11:55:20;11.38;;;3.53;;
7845;SDS011;3968;51.424;6.788;2023-05-29T11:57:50;12.93;;;3.75;;
7845;SDS011;3968;51.424;6.788;2023-05-29T12:00:17;8.82;;;3.05;;
7845;SDS011;3968;51.424;6.788;2023-05-29T12:02:44;12.82;;;3.20;;
7845;SDS011;3968;51.424;6.788;2023-05-29T12:05:12;9.57;;;2.72;;
7845;SDS011;3968;51.424;6.788;2023-05-29T12:07:46;16.52;;;4.20;;
7845;SDS011;3968;51.424;6.788;2023-05-29T12:10:13;11.52;;;3.50;;
7845;SDS011;3968;51.424;6.788;2023-05-29T12:12:40;11.15;;;3.22;;
7845;SDS011;3968;51.424;6.788;2023-05-29T12:15:06;9.27;;;3.70;;
7845;SDS011;3968;51.424;6.788;2023-05-29T12:17:33;12.52;;;3.58;;
7845;SDS011;3968;51.424;6.788;2023-05-29T12:20:00;10.73;;;2.90;;
7845;SDS011;3968;51.424;6.788;2023-05-29T12:22:36;8.23;;;3.17;;
7845;SDS011;3968;51.424;6.788;2023-05-29T12:25:05;9.82;;;3.13;;
7845;SDS011;3968;51.424;6.788;2023-05-29T12:27:32;9.35;;;3.50;;
7845;SDS011;3968;51.424;6.788;2023-05-29T12:30:03;8.30;;;3.25;;
7845;SDS011;3968;51.424;6.788;2023-05-29T12:32:36;6.43;;;2.80;;
7845;SDS011;3968;51.424;6.788;2023-05-29T12:35:10;11.80;;;4.05;;
7845;SDS011;3968;51.424;6.788;2023-05-29T12:37:41;12.23;;;3.28;;
7845;SDS011;3968;51.424;6.788;2023-05-29T12:40:16;9.85;;;3.22;;
7845;SDS011;3968;51.424;6.788;2023-05-29T12:42:43;9.50;;;3.33;;
7845;SDS011;3968;51.424;6.788;2023-05-29T12:45:09;15.35;;;3.58;;
7845;SDS011;3968;51.424;6.788;2023-05-29T12:47:36;11.98;;;3.42;;
7845;SDS011;3968;51.424;6.788;2023-05-29T12:50:17;7.68;;;2.78;;
7845;SDS011;3968;51.424;6.788;2023-05-29T12:52:45;12.18;;;3.55;;
7845;SDS011;3968;51.424;6.788;2023-05-29T12:55:11;8.68;;;3.28;;
7845;SDS011;3968;51.424;6.788;2023-05-29T12:57:37;9.60;;;3.55;;
7845;SDS011;3968;51.424;6.788;2023-05-29T13:00:04;9.68;;;2.95;;
7845;SDS011;3968;51.424;6.788;2023-05-29T13:02:32;8.13;;;3.25;;
7845;SDS011;3968;51.424;6.788;2023-05-29T13:04:57;6.82;;;2.83;;
7845;SDS011;3968;51.424;6.788;2023-05-29T13:07:23;8.75;;;3.17;;
7845;SDS011;3968;51.424;6.788;2023-05-29T13:09:52;9.93;;;3.53;;
7845;SDS011;3968;51.424;6.788;2023-05-29T13:12:18;13.30;;;3.15;;
7845;SDS011;3968;51.424;6.788;2023-05-29T13:14:44;11.15;;;3.60;;
7845;SDS011;3968;51.424;6.788;2023-05-29T13:17:10;8.75;;;3.22;;
7845;SDS011;3968;51.424;6.788;2023-05-29T13:19:36;8.35;;;3.53;;
7845;SDS011;3968;51.424;6.788;2023-05-29T13:22:02;7.75;;;3.88;;
7845;SDS011;3968;51.424;6.788;2023-05-29T13:24:28;10.15;;;3.20;;
7845;SDS011;3968;51.424;6.788;2023-05-29T13:26:54;9.88;;;4.20;;
7845;SDS011;3968;51.424;6.788;2023-05-29T13:29:20;11.15;;;3.60;;
7845;SDS011;3968;51.424;6.788;2023-05-29T13:31:46;6.53;;;3.30;;
7845;SDS011;3968;51.424;6.788;2023-05-29T13:34:12;10.20;;;3.28;;
7845;SDS011;3968;51.424;6.788;2023-05-29T13:36:38;8.85;;;3.25;;
7845;SDS011;3968;51.424;6.788;2023-05-29T13:39:04;8.25;;;3.40;;
7845;SDS011;3968;51.424;6.788;2023-05-29T13:41:31;10.57;;;3.20;;
7845;SDS011;3968;51.424;6.788;2023-05-29T13:43:57;10.40;;;3.20;;
7845;SDS011;3968;51.424;6.788;2023-05-29T13:46:23;8.55;;;3.35;;
7845;SDS011;3968;51.424;6.788;2023-05-29T13:48:51;7.10;;;3.03;;
7845;SDS011;3968;51.424;6.788;2023-05-29T13:51:17;8.02;;;3.30;;
7845;SDS011;3968;51.424;6.788;2023-05-29T13:53:43;13.35;;;3.78;;
7845;SDS011;3968;51.424;6.788;2023-05-29T13:56:09;10.25;;;3.63;;
7845;SDS011;3968;51.424;6.788;2023-05-29T13:58:35;13.80;;;3.38;;
7845;SDS011;3968;51.424;6.788;2023-05-29T14:01:01;10.65;;;2.95;;
7845;SDS011;3968;51.424;6.788;2023-05-29T14:03:27;7.13;;;2.67;;
7845;SDS011;3968;51.424;6.788;2023-05-29T14:05:54;7.25;;;2.50;;
7845;SDS011;3968;51.424;6.788;2023-05-29T14:08:20;8.95;;;3.05;;
7845;SDS011;3968;51.424;6.788;2023-05-29T14:10:46;10.48;;;3.25;;
7845;SDS011;3968;51.424;6.788;2023-05-29T14:13:12;12.88;;;3.42;;
7845;SDS011;3968;51.424;6.788;2023-05-29T14:15:38;10.45;;;3.47;;
7845;SDS011;3968;51.424;6.788;2023-05-29T14:18:04;8.43;;;3.10;;
7845;SDS011;3968;51.424;6.788;2023-05-29T14:20:30;11.52;;;3.72;;
7845;SDS011;3968;51.424;6.788;2023-05-29T14:22:56;7.93;;;3.10;;
7845;SDS011;3968;51.424;6.788;2023-05-29T14:25:22;11.73;;;3.20;;
7845;SDS011;3968;51.424;6.788;2023-05-29T14:27:48;6.20;;;3.15;;
7845;SDS011;3968;51.424;6.788;2023-05-29T14:30:14;5.93;;;3.17;;
7845;SDS011;3968;51.424;6.788;2023-05-29T14:32:40;8.10;;;2.85;;
7845;SDS011;3968;51.424;6.788;2023-05-29T14:35:07;8.20;;;3.08;;
7845;SDS011;3968;51.424;6.788;2023-05-29T14:37:33;7.80;;;3.10;;
7845;SDS011;3968;51.424;6.788;2023-05-29T14:40:00;8.88;;;3.67;;
7845;SDS011;3968;51.424;6.788;2023-05-29T14:42:26;19.48;;;11.52;;
7845;SDS011;3968;51.424;6.788;2023-05-29T14:44:52;103.30;;;67.43;;
7845;SDS011;3968;51.424;6.788;2023-05-29T14:47:18;15.73;;;8.88;;
7845;SDS011;3968;51.424;6.788;2023-05-29T14:49:44;10.43;;;7.25;;
7845;SDS011;3968;51.424;6.788;2023-05-29T14:52:10;15.65;;;4.40;;
7845;SDS011;3968;51.424;6.788;2023-05-29T14:54:36;9.32;;;4.95;;
7845;SDS011;3968;51.424;6.788;2023-05-29T14:57:02;6.95;;;2.63;;
7845;SDS011;3968;51.424;6.788;2023-05-29T14:59:28;8.27;;;3.25;;
7845;SDS011;3968;51.424;6.788;2023-05-29T15:01:54;11.32;;;3.60;;
7845;SDS011;3968;51.424;6.788;2023-05-29T15:04:21;8.70;;;3.17;;
7845;SDS011;3968;51.424;6.788;2023-05-29T15:06:47;8.05;;;2.65;;
7845;SDS011;3968;51.424;6.788;2023-05-29T15:09:13;8.25;;;3.17;;
7845;SDS011;3968;51.424;6.788;2023-05-29T15:11:39;8.48;;;3.28;;
7845;SDS011;3968;51.424;6.788;2023-05-29T15:14:05;10.52;;;3.58;;
7845;SDS011;3968;51.424;6.788;2023-05-29T15:16:31;7.72;;;3.15;;
7845;SDS011;3968;51.424;6.788;2023-05-29T15:18:57;7.18;;;2.97;;
7845;SDS011;3968;51.424;6.788;2023-05-29T15:21:23;9.90;;;3.00;;
7845;SDS011;3968;51.424;6.788;2023-05-29T15:23:49;9.15;;;3.72;;
7845;SDS011;3968;51.424;6.788;2023-05-29T15:26:15;12.57;;;3.70;;
7845;SDS011;3968;51.424;6.788;2023-05-29T15:28:41;7.57;;;3.15;;